createdAt,value
2023-03-24T00:01:44.424Z,78.37
2023-03-24T00:04:11.224Z,78.71
2023-03-24T00:06:38.472Z,79.01
2023-03-24T00:09:06.339Z,79.10
2023-03-24T00:11:36.218Z,79.28
2023-03-24T00:14:03.343Z,79.12
2023-03-24T00:16:30.135Z,79.30
2023-03-24T00:18:56.741Z,79.78
2023-03-24T00:21:27.487Z,80.07
2023-03-24T00:23:55.379Z,79.83
2023-03-24T00:26:22.201Z,79.72
2023-03-24T00:28:49.306Z,79.49
2023-03-24T00:31:17.130Z,79.78
2023-03-24T00:33:44.986Z,79.73
2023-03-24T00:36:12.082Z,79.70
2023-03-24T00:38:39.434Z,79.97
2023-03-24T00:41:07.835Z,80.01
2023-03-24T00:43:35.012Z,80.38
2023-03-24T00:46:04.028Z,80.23
2023-03-24T00:48:30.829Z,79.85
2023-03-24T00:50:57.543Z,79.56
2023-03-24T00:53:26.012Z,79.85
2023-03-24T00:55:52.643Z,80.15
2023-03-24T00:58:21.829Z,80.23
2023-03-24T01:00:52.268Z,80.25
2023-03-24T01:03:22.027Z,80.19
2023-03-24T01:05:48.800Z,79.87
2023-03-24T01:08:16.409Z,79.80
2023-03-24T01:10:50.506Z,79.88
2023-03-24T01:13:17.851Z,79.86
2023-03-24T01:15:45.333Z,80.01
2023-03-24T01:18:15.642Z,80.17
2023-03-24T01:20:45.847Z,79.82
2023-03-24T01:23:14.676Z,79.53
2023-03-24T01:25:45.369Z,79.48
2023-03-24T01:28:12.982Z,79.68
2023-03-24T01:30:39.750Z,79.54
2023-03-24T01:33:06.837Z,79.21
2023-03-24T01:35:33.703Z,79.01
2023-03-24T01:38:00.365Z,78.73
2023-03-24T01:40:30.456Z,79.11
2023-03-24T01:42:57.560Z,79.46
2023-03-24T01:45:39.764Z,79.19
2023-03-24T01:48:08.673Z,79.15
2023-03-24T01:50:35.595Z,79.14
2023-03-24T01:53:02.268Z,79.16
2023-03-24T01:55:28.985Z,79.07
2023-03-24T01:57:57.580Z,79.77
2023-03-24T02:00:25.168Z,80.13
2023-03-24T02:02:58.613Z,80.55
2023-03-24T02:05:29.839Z,80.00
2023-03-24T02:08:13.750Z,79.67
2023-03-24T02:10:40.462Z,79.82
2023-03-24T02:13:07.727Z,79.69
2023-03-24T02:15:36.410Z,79.73
2023-03-24T02:18:09.146Z,79.76
2023-03-24T02:20:58.031Z,79.98
2023-03-24T02:23:49.738Z,79.86
2023-03-24T02:26:22.272Z,80.40
2023-03-24T02:28:51.900Z,80.38
2023-03-24T02:31:51.177Z,80.37
2023-03-24T02:34:50.112Z,80.68
2023-03-24T02:37:28.902Z,80.46
2023-03-24T02:40:05.006Z,80.61
2023-03-24T02:42:31.619Z,81.11
2023-03-24T02:45:12.162Z,81.05
2023-03-24T02:47:57.132Z,80.96
2023-03-24T02:50:51.600Z,80.99
2023-03-24T02:53:18.381Z,81.45
2023-03-24T02:56:10.492Z,81.25
2023-03-24T02:58:50.016Z,81.29
2023-03-24T03:01:35.854Z,81.22
2023-03-24T03:04:07.626Z,81.35
2023-03-24T03:06:37.023Z,81.38
2023-03-24T03:09:07.745Z,81.15
2023-03-24T03:11:34.444Z,80.84
2023-03-24T03:14:06.466Z,80.92
2023-03-24T03:16:46.691Z,80.78
2023-03-24T03:19:24.655Z,80.85
2023-03-24T03:21:51.322Z,81.04
2023-03-24T03:24:26.834Z,81.10
2023-03-24T03:26:57.535Z,81.21
2023-03-24T03:29:25.730Z,81.58
2023-03-24T03:31:59.306Z,81.38
2023-03-24T03:34:34.816Z,81.11
2023-03-24T03:37:19.349Z,80.82
2023-03-24T03:39:59.685Z,80.97
2023-03-24T03:42:26.370Z,80.89
2023-03-24T03:44:53.032Z,80.98
2023-03-24T03:47:21.378Z,81.24
2023-03-24T03:49:48.018Z,81.46
2023-03-24T03:52:14.787Z,81.79
2023-03-24T03:54:41.513Z,80.97
2023-03-24T03:57:08.365Z,80.76
2023-03-24T03:59:36.383Z,80.27
2023-03-24T04:02:49.436Z,80.56
2023-03-24T04:05:57.969Z,80.75
2023-03-24T04:08:46.003Z,80.31
2023-03-24T04:11:55.993Z,80.35
2023-03-24T04:14:28.746Z,80.50
2023-03-24T04:16:58.124Z,80.25
2023-03-24T04:19:42.992Z,80.32
2023-03-24T04:22:31.330Z,80.39
2023-03-24T04:25:10.032Z,80.49
2023-03-24T04:28:10.407Z,80.73
2023-03-24T04:30:45.639Z,81.23
2023-03-24T04:33:28.987Z,81.65
2023-03-24T04:36:06.654Z,81.66
2023-03-24T04:38:35.733Z,81.72
2023-03-24T04:41:02.399Z,81.70
2023-03-24T04:43:29.955Z,81.83
2023-03-24T04:45:58.047Z,81.75
2023-03-24T04:48:25.281Z,81.81
2023-03-24T04:50:57.139Z,81.95
2023-03-24T04:53:23.876Z,81.95
2023-03-24T04:55:50.513Z,81.90
2023-03-24T04:58:18.106Z,81.73
2023-03-24T05:00:45.155Z,81.86
2023-03-24T05:03:16.768Z,81.35
2023-03-24T05:05:48.370Z,80.97
2023-03-24T05:08:16.453Z,80.52
2023-03-24T05:10:43.443Z,80.39
2023-03-24T05:13:10.148Z,80.20
2023-03-24T05:15:36.797Z,80.25
2023-03-24T05:18:04.413Z,80.35
2023-03-24T05:20:31.522Z,80.39
2023-03-24T05:22:58.228Z,80.24
2023-03-24T05:25:24.849Z,79.96
2023-03-24T05:27:51.506Z,79.56
2023-03-24T05:30:20.317Z,78.65
2023-03-24T05:32:47.455Z,77.56
2023-03-24T05:35:14.403Z,77.10
2023-03-24T05:37:41.360Z,77.16
2023-03-24T05:40:08.782Z,76.76
2023-03-24T05:42:35.527Z,76.45
2023-03-24T05:45:02.272Z,75.21
2023-03-24T05:47:28.954Z,75.20
2023-03-24T05:49:55.797Z,73.16
2023-03-24T05:52:22.882Z,72.35
2023-03-24T05:54:52.318Z,72.19
2023-03-24T05:57:19.439Z,71.65
2023-03-24T05:59:47.690Z,71.72
2023-03-24T06:02:14.468Z,69.88
2023-03-24T06:04:46.466Z,69.54
2023-03-24T06:07:13.445Z,68.84
2023-03-24T06:09:42.598Z,67.38
2023-03-24T06:12:09.825Z,66.33
2023-03-24T06:14:36.484Z,67.13
2023-03-24T06:17:03.193Z,66.38
2023-03-24T06:19:33.850Z,65.54
2023-03-24T06:22:02.865Z,65.69
2023-03-24T06:24:29.669Z,64.76
2023-03-24T06:27:02.399Z,67.12
2023-03-24T06:29:30.820Z,65.69
2023-03-24T06:31:57.528Z,66.18
2023-03-24T06:34:25.300Z,64.81
2023-03-24T06:36:52.547Z,63.68
2023-03-24T06:39:19.240Z,63.35
2023-03-24T06:41:45.867Z,62.68
2023-03-24T06:44:12.602Z,61.82
2023-03-24T06:46:40.576Z,61.12
2023-03-24T06:49:07.630Z,59.40
2023-03-24T06:51:34.439Z,56.76
2023-03-24T06:54:01.069Z,55.34
2023-03-24T06:56:27.883Z,54.96
2023-03-24T06:58:54.902Z,53.97
2023-03-24T07:01:21.604Z,54.70
2023-03-24T07:03:48.517Z,52.02
2023-03-24T07:06:15.402Z,52.31
2023-03-24T07:08:42.004Z,52.87
2023-03-24T07:11:10.011Z,51.34
2023-03-24T07:13:37.025Z,51.33
2023-03-24T07:16:04.025Z,49.19
2023-03-24T07:18:30.995Z,49.90
2023-03-24T07:20:57.740Z,49.44
2023-03-24T07:23:25.759Z,49.05
2023-03-24T07:25:52.517Z,46.92
2023-03-24T07:28:19.362Z,46.76
2023-03-24T07:30:46.113Z,44.96
2023-03-24T07:33:12.972Z,44.43
2023-03-24T07:35:40.297Z,43.46
2023-03-24T07:38:07.088Z,42.73
2023-03-24T07:40:35.548Z,41.88
2023-03-24T07:43:04.318Z,41.76
2023-03-24T07:45:31.649Z,41.51
2023-03-24T07:48:02.231Z,42.00
2023-03-24T07:50:29.891Z,41.93
2023-03-24T07:52:59.412Z,41.57
2023-03-24T07:55:27.372Z,40.78
2023-03-24T07:57:54.189Z,40.53
2023-03-24T08:00:21.689Z,41.98
2023-03-24T08:02:50.005Z,40.82
2023-03-24T08:05:20.084Z,40.93
2023-03-24T08:07:53.711Z,38.32
2023-03-24T08:10:22.822Z,40.22
2023-03-24T08:12:49.847Z,37.89
2023-03-24T08:15:16.672Z,38.38
2023-03-24T08:17:43.431Z,34.25
2023-03-24T08:20:15.171Z,31.20
2023-03-24T08:22:43.046Z,30.20
2023-03-24T08:25:11.255Z,28.87
2023-03-24T08:27:38.806Z,32.10
2023-03-24T08:30:07.383Z,31.68
2023-03-24T08:32:34.898Z,29.14
2023-03-24T08:35:02.786Z,30.66
2023-03-24T08:37:29.533Z,29.92
2023-03-24T08:39:58.918Z,29.15
2023-03-24T08:42:26.138Z,27.08
2023-03-24T08:44:52.968Z,31.27
2023-03-24T08:47:19.742Z,28.10
2023-03-24T08:49:46.432Z,25.83
2023-03-24T08:52:13.191Z,27.65
2023-03-24T08:54:39.856Z,26.80
2023-03-24T08:57:06.813Z,27.58
2023-03-24T08:59:33.650Z,28.44
2023-03-24T09:02:00.396Z,27.05
2023-03-24T09:04:27.426Z,28.62
2023-03-24T09:07:02.298Z,28.11
2023-03-24T09:09:30.350Z,27.04
2023-03-24T09:11:57.145Z,27.27
2023-03-24T09:14:24.257Z,27.49
2023-03-24T09:16:51.484Z,28.66
2023-03-24T09:19:18.411Z,31.13
2023-03-24T09:21:46.201Z,28.83
2023-03-24T09:24:13.194Z,29.89
2023-03-24T09:26:40.011Z,29.10
2023-03-24T09:29:07.061Z,29.49
2023-03-24T09:31:34.075Z,30.14
2023-03-24T09:34:03.960Z,29.64
2023-03-24T09:36:31.363Z,29.85
2023-03-24T09:38:58.080Z,30.78
2023-03-24T09:41:29.474Z,31.86
2023-03-24T09:44:18.106Z,30.47
2023-03-24T09:46:47.544Z,32.04
2023-03-24T09:49:17.678Z,30.75
2023-03-24T09:51:45.252Z,30.56
2023-03-24T09:54:17.466Z,30.63
2023-03-24T09:56:45.530Z,31.02
2023-03-24T09:59:12.164Z,29.42
2023-03-24T10:01:38.801Z,30.58
2023-03-24T10:04:05.439Z,28.91
2023-03-24T10:06:34.226Z,30.56
2023-03-24T10:09:22.148Z,29.88
2023-03-24T10:11:54.700Z,28.71
2023-03-24T10:14:42.840Z,29.23
2023-03-24T10:17:18.885Z,28.82
2023-03-24T10:20:07.841Z,28.90
2023-03-24T10:22:39.986Z,28.41
2023-03-24T10:25:15.001Z,28.36
2023-03-24T10:28:17.736Z,29.16
2023-03-24T10:30:46.240Z,29.71
2023-03-24T10:33:14.986Z,31.04
2023-03-24T10:36:09.520Z,29.81
2023-03-24T10:38:36.500Z,29.91
2023-03-24T10:41:03.640Z,30.95
2023-03-24T10:43:30.400Z,29.09
2023-03-24T10:45:57.654Z,29.29
2023-03-24T10:48:55.031Z,29.66
2023-03-24T10:51:26.422Z,31.17
2023-03-24T10:54:22.258Z,29.67
2023-03-24T10:57:07.619Z,30.38
2023-03-24T10:59:39.121Z,28.42
2023-03-24T11:02:19.200Z,28.90
2023-03-24T11:05:12.204Z,29.63
2023-03-24T11:07:40.822Z,30.78
2023-03-24T11:10:10.490Z,31.12
2023-03-24T11:12:40.973Z,29.70
2023-03-24T11:15:23.351Z,30.69
2023-03-24T11:18:01.952Z,30.51
2023-03-24T11:20:32.002Z,28.69
2023-03-24T11:23:01.901Z,32.49
2023-03-24T11:25:32.490Z,29.04
2023-03-24T11:28:02.819Z,30.74
2023-03-24T11:30:34.099Z,31.38
2023-03-24T11:33:00.906Z,32.16
2023-03-24T11:35:40.914Z,30.09
2023-03-24T11:38:08.716Z,31.21
2023-03-24T11:40:35.459Z,30.41
2023-03-24T11:43:03.337Z,30.62
2023-03-24T11:45:40.199Z,30.89
2023-03-24T11:48:34.472Z,30.15
2023-03-24T11:51:01.290Z,30.18
2023-03-24T11:53:31.746Z,30.26
2023-03-24T11:56:13.501Z,31.67
2023-03-24T11:58:47.852Z,30.68
2023-03-24T12:01:14.587Z,31.94
2023-03-24T12:03:56.855Z,30.02
2023-03-24T12:06:53.607Z,30.29
2023-03-24T12:09:42.365Z,30.57
2023-03-24T12:12:21.190Z,30.85
2023-03-24T12:15:07.797Z,30.77
2023-03-24T12:17:43.033Z,30.30
2023-03-24T12:20:42.033Z,31.73
2023-03-24T12:23:42.673Z,30.21
2023-03-24T12:26:17.795Z,30.12
2023-03-24T12:29:19.912Z,29.56
2023-03-24T12:32:05.190Z,31.48
2023-03-24T12:34:54.014Z,30.39
2023-03-24T12:37:47.557Z,31.62
2023-03-24T12:40:23.249Z,30.84
2023-03-24T12:42:52.878Z,31.48
2023-03-24T12:45:37.885Z,29.67
2023-03-24T12:48:23.423Z,31.38
2023-03-24T12:51:08.845Z,30.71
2023-03-24T12:53:44.880Z,29.99
2023-03-24T12:56:26.216Z,30.73
2023-03-24T12:59:04.592Z,30.32
2023-03-24T13:01:40.824Z,31.01
2023-03-24T13:04:26.467Z,30.76
2023-03-24T13:07:14.860Z,29.80
2023-03-24T13:10:22.011Z,30.76
2023-03-24T13:13:06.261Z,34.65
2023-03-24T13:15:45.877Z,32.22
2023-03-24T13:18:18.772Z,32.20
2023-03-24T13:20:54.589Z,31.46
2023-03-24T13:23:47.264Z,31.71
2023-03-24T13:26:27.990Z,31.01
2023-03-24T13:29:03.933Z,32.15
2023-03-24T13:31:35.575Z,32.27
2023-03-24T13:34:02.874Z,31.99
2023-03-24T13:36:46.128Z,31.20
2023-03-24T13:39:15.644Z,31.70
2023-03-24T13:41:44.327Z,33.00
2023-03-24T13:44:34.076Z,31.24
2023-03-24T13:47:04.923Z,31.59
2023-03-24T13:49:31.864Z,31.70
2023-03-24T13:51:58.593Z,32.92
2023-03-24T13:54:28.385Z,33.62
2023-03-24T13:56:54.949Z,33.94
2023-03-24T13:59:41.355Z,34.28
2023-03-24T14:02:22.837Z,33.61
2023-03-24T14:05:09.707Z,34.58
2023-03-24T14:07:39.513Z,34.59
2023-03-24T14:10:14.914Z,34.66
2023-03-24T14:13:00.164Z,34.87
2023-03-24T14:15:40.822Z,35.36
2023-03-24T14:18:26.070Z,35.86
2023-03-24T14:21:00.861Z,36.12
2023-03-24T14:23:47.017Z,36.12
2023-03-24T14:26:34.496Z,36.28
2023-03-24T14:29:01.266Z,36.78
2023-03-24T14:31:32.116Z,35.67
2023-03-24T14:34:02.256Z,35.38
2023-03-24T14:36:40.209Z,34.50
2023-03-24T14:39:28.437Z,33.45
2023-03-24T14:41:55.605Z,33.21
2023-03-24T14:44:52.513Z,32.18
2023-03-24T14:47:20.784Z,32.95
2023-03-24T14:49:48.352Z,34.50
2023-03-24T14:52:27.885Z,35.25
2023-03-24T14:55:08.152Z,36.65
2023-03-24T14:57:36.940Z,38.27
2023-03-24T15:00:17.503Z,38.62
2023-03-24T15:02:45.620Z,39.73
2023-03-24T15:05:16.664Z,40.07
2023-03-24T15:07:43.916Z,40.68
2023-03-24T15:10:17.967Z,40.80
2023-03-24T15:12:48.033Z,41.50
2023-03-24T15:15:23.962Z,42.37
2023-03-24T15:17:51.226Z,43.49
2023-03-24T15:20:26.301Z,43.57
2023-03-24T15:22:55.245Z,43.67
2023-03-24T15:25:28.530Z,44.23
2023-03-24T15:27:56.825Z,44.21
2023-03-24T15:30:23.556Z,45.41
2023-03-24T15:32:50.680Z,45.52
2023-03-24T15:35:22.330Z,45.89
2023-03-24T15:37:53.821Z,46.21
2023-03-24T15:40:26.728Z,47.05
2023-03-24T15:42:54.409Z,47.62
2023-03-24T15:45:37.825Z,48.22
2023-03-24T15:48:08.333Z,48.68
2023-03-24T15:50:37.282Z,48.91
2023-03-24T15:53:19.322Z,49.20
2023-03-24T15:55:46.233Z,49.60
2023-03-24T15:58:32.239Z,49.95
2023-03-24T16:01:00.087Z,50.27
2023-03-24T16:03:27.981Z,50.51
2023-03-24T16:05:55.574Z,50.82
2023-03-24T16:08:39.240Z,51.03
2023-03-24T16:11:10.901Z,51.82
2023-03-24T16:13:38.664Z,51.50
2023-03-24T16:16:36.281Z,51.80
2023-03-24T16:19:04.662Z,52.85
2023-03-24T16:21:31.622Z,53.51
2023-03-24T16:23:58.662Z,54.04
2023-03-24T16:26:27.000Z,54.62
2023-03-24T16:28:54.223Z,54.43
2023-03-24T16:31:25.613Z,54.91
2023-03-24T16:33:52.922Z,54.61
2023-03-24T16:36:22.175Z,54.58
2023-03-24T16:38:49.580Z,54.78
2023-03-24T16:41:16.369Z,55.01
2023-03-24T16:43:43.120Z,55.36
2023-03-24T16:46:17.174Z,55.63
2023-03-24T16:48:43.888Z,55.45
2023-03-24T16:51:15.014Z,55.77
2023-03-24T16:53:42.184Z,55.85
2023-03-24T16:56:09.289Z,56.28
2023-03-24T16:58:36.349Z,56.39
2023-03-24T17:01:03.923Z,56.42
2023-03-24T17:03:30.703Z,56.50
2023-03-24T17:05:57.814Z,57.19
2023-03-24T17:08:24.593Z,56.96
2023-03-24T17:10:52.418Z,57.42
2023-03-24T17:13:21.010Z,57.48
2023-03-24T17:15:47.792Z,57.58
2023-03-24T17:18:14.529Z,57.59
2023-03-24T17:20:41.170Z,57.99
2023-03-24T17:23:09.089Z,58.17
2023-03-24T17:25:35.855Z,58.18
2023-03-24T17:28:02.539Z,58.10
2023-03-24T17:30:29.593Z,58.03
2023-03-24T17:32:57.822Z,58.22
2023-03-24T17:35:24.696Z,58.50
2023-03-24T17:37:51.459Z,58.84
2023-03-24T17:40:18.875Z,59.09
2023-03-24T17:42:46.613Z,59.42
2023-03-24T17:45:15.794Z,59.68
2023-03-24T17:47:42.492Z,59.21
2023-03-24T17:50:12.479Z,58.34
2023-03-24T17:52:40.456Z,57.82
2023-03-24T17:55:07.584Z,58.15
2023-03-24T17:57:34.369Z,58.53
2023-03-24T18:00:01.281Z,58.52
2023-03-24T18:02:28.041Z,58.85
2023-03-24T18:04:55.236Z,59.51
2023-03-24T18:07:23.112Z,59.90
2023-03-24T18:09:50.045Z,60.03
2023-03-24T18:12:16.990Z,60.36
2023-03-24T18:14:44.920Z,60.40
2023-03-24T18:17:12.073Z,60.92
2023-03-24T18:19:38.880Z,61.26
2023-03-24T18:22:05.705Z,60.90
2023-03-24T18:24:32.488Z,60.99
2023-03-24T18:26:59.209Z,61.18
2023-03-24T18:29:26.490Z,61.45
2023-03-24T18:31:53.236Z,61.07
2023-03-24T18:34:20.001Z,61.30
2023-03-24T18:36:46.742Z,61.64
2023-03-24T18:39:13.529Z,62.38
2023-03-24T18:41:40.310Z,62.58
2023-03-24T18:44:09.188Z,63.25
2023-03-24T18:46:36.890Z,62.94
2023-03-24T18:49:03.715Z,62.98
2023-03-24T18:51:30.713Z,63.91
2023-03-24T18:53:57.409Z,63.76
2023-03-24T18:56:24.417Z,63.62
2023-03-24T18:58:52.501Z,63.64
2023-03-24T19:01:22.640Z,63.66
2023-03-24T19:03:49.839Z,64.41
2023-03-24T19:06:16.673Z,64.95
2023-03-24T19:08:45.281Z,65.27
2023-03-24T19:11:12.269Z,65.75
2023-03-24T19:13:39.997Z,66.05
2023-03-24T19:16:09.151Z,66.40
2023-03-24T19:18:36.517Z,66.27
2023-03-24T19:21:03.421Z,66.46
2023-03-24T19:23:30.780Z,66.11
2023-03-24T19:25:57.448Z,65.99
2023-03-24T19:28:29.710Z,66.15
2023-03-24T19:30:57.239Z,66.26
2023-03-24T19:33:23.910Z,66.41
2023-03-24T19:35:51.159Z,67.04
2023-03-24T19:38:18.587Z,67.19
2023-03-24T19:40:45.278Z,67.46
2023-03-24T19:43:11.927Z,67.42
2023-03-24T19:45:42.823Z,66.90
2023-03-24T19:48:10.278Z,66.46
2023-03-24T19:50:37.403Z,66.90
2023-03-24T19:53:04.078Z,67.16
2023-03-24T19:55:31.475Z,67.41
2023-03-24T19:57:59.634Z,67.92
2023-03-24T20:00:26.430Z,66.81
2023-03-24T20:02:53.253Z,66.66
2023-03-24T20:05:20.194Z,66.48
2023-03-24T20:07:46.830Z,66.35
2023-03-24T20:10:13.617Z,66.28
2023-03-24T20:12:40.336Z,66.56
2023-03-24T20:15:07.778Z,67.36
2023-03-24T20:17:37.549Z,67.71
2023-03-24T20:20:07.269Z,67.59
2023-03-24T20:22:34.698Z,67.21
2023-03-24T20:25:01.328Z,67.88
2023-03-24T20:27:28.001Z,68.77
2023-03-24T20:29:54.713Z,68.62
2023-03-24T20:32:21.348Z,68.42
2023-03-24T20:34:47.994Z,68.89
2023-03-24T20:37:14.694Z,67.46
2023-03-24T20:39:43.545Z,66.41
2023-03-24T20:42:11.289Z,65.51
2023-03-24T20:44:37.916Z,65.10
2023-03-24T20:47:04.652Z,64.92
2023-03-24T20:49:32.372Z,64.61
2023-03-24T20:51:59.074Z,64.28
2023-03-24T20:54:25.797Z,64.58
2023-03-24T20:56:52.622Z,64.31
2023-03-24T20:59:19.441Z,64.66
2023-03-24T21:01:48.595Z,64.51
2023-03-24T21:04:16.625Z,64.74
2023-03-24T21:06:43.866Z,65.01
2023-03-24T21:09:10.741Z,64.90
2023-03-24T21:11:37.412Z,65.11
2023-03-24T21:14:04.140Z,65.48
2023-03-24T21:16:33.968Z,66.13
2023-03-24T21:19:03.792Z,65.05
2023-03-24T21:21:30.602Z,65.01
2023-03-24T21:23:57.607Z,65.03
2023-03-24T21:26:25.435Z,64.60
2023-03-24T21:28:53.019Z,64.76
2023-03-24T21:31:24.497Z,64.48
2023-03-24T21:33:51.508Z,64.79
2023-03-24T21:36:18.369Z,65.01
2023-03-24T21:38:45.389Z,65.59
2023-03-24T21:41:12.090Z,65.21
2023-03-24T21:43:40.487Z,65.08
2023-03-24T21:46:15.055Z,65.22
2023-03-24T21:48:51.400Z,66.01
2023-03-24T21:51:26.680Z,65.80
2023-03-24T21:53:59.605Z,66.04
2023-03-24T21:56:26.432Z,66.34
2023-03-24T21:58:54.662Z,66.24
2023-03-24T22:01:21.958Z,66.15
2023-03-24T22:03:48.797Z,66.36
2023-03-24T22:06:15.563Z,66.11
2023-03-24T22:08:43.804Z,66.36
2023-03-24T22:11:11.046Z,66.41
2023-03-24T22:13:39.325Z,66.61
2023-03-24T22:16:06.749Z,66.65
2023-03-24T22:18:33.892Z,67.30
2023-03-24T22:21:03.465Z,67.09
2023-03-24T22:23:33.223Z,67.43
2023-03-24T22:26:01.920Z,67.78
2023-03-24T22:28:29.169Z,67.80
2023-03-24T22:31:06.598Z,68.18
2023-03-24T22:33:33.238Z,68.29
2023-03-24T22:36:00.458Z,68.27
2023-03-24T22:38:27.364Z,68.91
2023-03-24T22:41:07.512Z,69.01
2023-03-24T22:43:35.350Z,68.83
2023-03-24T22:46:02.263Z,68.72
2023-03-24T22:48:28.936Z,68.83
2023-03-24T22:50:55.566Z,68.80
2023-03-24T22:53:22.255Z,69.08
2023-03-24T22:55:49.319Z,68.80
2023-03-24T22:58:16.278Z,68.78
2023-03-24T23:00:43.769Z,68.76
2023-03-24T23:03:10.428Z,68.68
2023-03-24T23:05:43.562Z,68.75
2023-03-24T23:08:10.512Z,68.85
2023-03-24T23:10:37.536Z,69.30
2023-03-24T23:13:04.469Z,69.22
2023-03-24T23:15:32.054Z,69.39
2023-03-24T23:17:59.308Z,69.34
2023-03-24T23:20:26.176Z,69.68
2023-03-24T23:22:52.871Z,69.81
2023-03-24T23:25:19.536Z,69.74
2023-03-24T23:27:46.551Z,69.78
2023-03-24T23:30:14.167Z,69.78
2023-03-24T23:32:41.374Z,70.06
2023-03-24T23:35:08.910Z,69.98
2023-03-24T23:37:35.932Z,69.87
2023-03-24T23:40:12.763Z,70.19
2023-03-24T23:42:40.892Z,70.31
2023-03-24T23:45:08.245Z,70.56
2023-03-24T23:47:35.055Z,71.01
2023-03-24T23:50:01.849Z,71.38
2023-03-24T23:52:28.594Z,71.98
2023-03-24T23:54:56.318Z,72.15
2023-03-24T23:57:23.008Z,71.95
2023-03-24T23:59:53.113Z,72.35
